Latest Weather Observations for Cobar Airport

IDN60801

Issued at 1:35 pm EST Friday 22 August 2014 (issued every 30 minutes, with the page automatically refreshed every 10 minutes)

About weather observations | Map of weather stations | Latest weather observations for NSW | Other Formats
Station Details ID: 048237 Name: COBAR AIRPORT AWS Lat: -31.54 Lon: 145.80 Height: 218.0 m
Data from the previous 72 hours. | See also: Recent months for locations in New South Wales
Date/Time
EST
Temp
°C
App
Temp
°C
Dew
Point
Rel
Hum
%
Delta-T
°C
Wind Press
QNH
hPa
Press
MSL
hPa
Rain
since 9 am
mm
Dir
 
Spd
km/h
Gust
km/h
Spd
kts
Gust
kts
22/01:30pm 19.0 16.0 7.8 48 5.8 ENE 13 19 7 10 1025.2 - 0.0
22/01:00pm 18.8 15.5 8.2 50 5.5 ENE 15 22 8 12 1025.7 1025.8 0.0
22/12:30pm 18.6 15.3 8.0 50 5.5 NE 15 24 8 13 1026.3 - 0.0
22/12:00pm 17.7 13.6 7.7 52 5.1 NE 19 26 10 14 1026.9 1027.0 0.0
22/11:30am 17.6 13.7 8.7 56 4.6 NNE 19 26 10 14 1027.3 - 0.0
22/11:00am 16.6 12.3 7.8 56 4.5 NE 20 32 11 17 1027.5 1027.7 0.0
22/10:30am 15.9 11.6 7.7 58 4.1 NE 20 30 11 16 1027.8 - 0.0
22/10:00am 15.4 10.7 7.7 60 3.9 ENE 22 30 12 16 1027.9 1028.1 0.0
22/09:30am 15.2 11.2 8.2 63 3.6 NE 19 30 10 16 1027.9 - 0.0
22/09:00am 13.8 10.2 8.2 69 2.8 ENE 17 28 9 15 1027.8 1028.0 0.0
22/08:30am 11.8 7.4 7.3 74 2.2 E 20 26 11 14 1027.6 - 0.0
22/08:00am 10.7 7.6 7.2 79 1.7 E 13 19 7 10 1027.4 1027.6 0.0
22/07:30am 9.4 6.6 7.0 85 1.1 E 11 17 6 9 1027.0 - 0.0
22/07:00am 8.9 5.3 6.9 87 0.9 E 15 20 8 11 1026.6 1026.7 0.0
22/06:30am 9.0 5.5 7.0 87 0.9 E 15 20 8 11 1026.3 - 0.0
22/06:00am 9.2 5.6 6.8 85 1.1 E 15 22 8 12 1025.9 1026.0 0.0
22/05:30am 9.3 6.1 6.7 84 1.2 E 13 19 7 10 1025.7 - 0.0
22/05:00am 9.6 5.6 6.7 82 1.4 E 17 24 9 13 1025.4 1025.5 0.0
22/04:30am 10.1 6.1 6.6 79 1.7 E 17 24 9 13 1025.1 - 0.0
22/04:00am 10.3 6.3 6.6 78 1.7 E 17 24 9 13 1025.1 1025.2 0.0
22/03:30am 10.5 6.5 6.6 77 1.9 E 17 24 9 13 1025.0 - 0.0
22/03:00am 10.3 6.6 6.5 77 1.8 E 15 20 8 11 1025.1 1025.2 0.0
22/02:30am 10.4 6.3 6.2 75 2.0 E 17 22 9 12 1025.3 - 0.0
22/02:00am 10.6 6.9 6.2 74 2.1 E 15 20 8 11 1025.5 1025.6 0.0
22/01:30am 11.0 7.3 6.2 72 2.3 ESE 15 20 8 11 1025.6 - 0.0
22/01:00am 11.1 7.3 6.0 71 2.4 E 15 24 8 13 1025.8 1025.9 0.0
22/12:30am 11.3 7.5 5.6 68 2.7 ESE 15 20 8 11 1025.8 - 0.0
22/12:00am 11.5 8.1 5.8 68 2.7 ESE 13 19 7 10 1025.8 1025.9 0.0
 
Date/Time
EST
Temp
°C
App
Temp
°C
Dew
Point
Rel
Hum
%
Delta-T
°C
Wind Press
QNH
hPa
Press
MSL
hPa
Rain
since 9 am
mm
Dir
 
Spd
km/h
Gust
km/h
Spd
kts
Gust
kts
21/11:30pm 10.3 7.6 5.5 72 2.2 ESE 9 13 5 7 1025.8 - 0.0
21/11:00pm 10.0 7.2 5.2 72 2.2 SE 9 13 5 7 1025.8 1025.9 0.0
21/10:30pm 10.2 7.0 5.0 70 2.4 SSE 11 13 6 7 1025.8 - 0.0
21/10:00pm 11.5 8.4 5.4 66 2.8 SE 11 15 6 8 1025.8 1025.9 0.0
21/09:30pm 11.0 8.2 5.3 68 2.6 SE 9 13 5 7 1025.7 - 0.0
21/09:00pm 11.3 8.5 5.2 66 2.8 SE 9 11 5 6 1025.4 1025.5 0.0
21/08:30pm 12.2 9.0 5.1 62 3.3 SE 11 15 6 8 1025.2 - 0.0
21/08:00pm 12.3 9.5 5.0 61 3.4 ESE 9 11 5 6 1025.1 1025.2 0.0
21/07:30pm 13.2 10.3 4.9 57 3.9 SE 9 11 5 6 1024.8 - 0.0
21/07:00pm 13.7 10.8 4.6 54 4.2 SE 9 11 5 6 1024.5 1024.6 0.0
21/06:30pm 14.9 11.6 4.6 50 4.9 SE 11 13 6 7 1024.2 - 0.0
21/06:00pm 16.1 12.7 4.2 45 5.6 SE 11 15 6 8 1024.0 1024.2 0.0
21/05:30pm 17.3 12.7 3.6 40 6.4 E 17 24 9 13 1023.7 - 0.0
21/05:00pm 17.8 13.1 3.3 38 6.8 ESE 17 26 9 14 1023.3 1023.5 0.0
21/04:30pm 18.1 13.0 2.8 36 7.1 ESE 19 28 10 15 1023.0 - 0.0
21/04:00pm 18.2 13.1 2.9 36 7.1 E 19 24 10 13 1022.9 1023.0 0.0
21/03:30pm 18.6 13.7 4.0 38 7.0 E 19 30 10 16 1022.7 - 0.0
21/03:00pm 18.3 13.1 3.4 37 7.0 ESE 20 30 11 16 1022.9 1023.0 0.0
21/02:30pm 18.6 13.8 4.8 40 6.7 SE 19 28 10 15 1023.1 - 0.0
21/02:00pm 17.4 12.2 3.3 39 6.6 E 20 26 11 14 1023.5 1023.7 0.0
21/01:30pm 17.6 13.1 4.2 41 6.4 E 17 28 9 15 1023.7 - 0.0
21/01:00pm 17.0 12.3 3.3 40 6.4 E 17 24 9 13 1024.0 1024.2 0.0
21/12:30pm 16.5 12.3 3.9 43 5.9 ESE 15 22 8 12 1024.7 - 0.0
21/12:00pm 15.9 11.5 4.9 48 5.2 SE 17 22 9 12 1025.2 1025.3 0.0
21/11:30am 15.5 10.7 4.8 49 5.1 SE 19 26 10 14 1025.5 - 0.0
21/11:00am 14.6 10.2 4.6 51 4.7 ESE 17 24 9 13 1025.9 1026.0 0.0
21/10:30am 14.0 9.8 5.6 57 4.0 ESE 17 24 9 13 1026.3 - 0.0
21/10:00am 13.3 8.5 5.7 60 3.6 E 20 26 11 14 1026.5 1026.6 0.0
21/09:30am 12.3 7.5 5.5 63 3.2 ESE 20 32 11 17 1026.5 - 0.0
21/09:00am 11.8 6.7 6.1 68 2.7 ESE 22 30 12 16 1026.5 1026.6 0.0
21/08:30am 10.9 6.6 5.4 69 2.6 E 17 24 9 13 1026.5 - 0.0
21/08:00am 9.7 5.7 4.9 72 2.2 ESE 15 20 8 11 1026.3 1026.4 0.0
21/07:30am 8.6 4.1 4.4 75 1.9 ESE 17 24 9 13 1026.1 - 0.0
21/07:00am 7.2 3.4 4.0 80 1.4 ESE 13 17 7 9 1025.9 1026.0 0.0
21/06:30am 7.0 3.5 3.4 78 1.5 E 11 13 6 7 1025.5 - 0.0
21/06:00am 7.8 4.0 3.8 76 1.7 E 13 19 7 10 1025.0 1025.1 0.0
21/05:30am 7.6 4.1 3.6 76 1.7 E 11 15 6 8 1024.9 - 0.0
21/05:00am 8.2 4.4 3.7 73 2.0 ESE 13 19 7 10 1024.8 1024.9 0.0
21/04:30am 8.5 4.7 3.8 72 2.1 ESE 13 17 7 9 1024.7 - 0.0
21/04:00am 8.8 5.0 3.8 71 2.2 ESE 13 19 7 10 1024.2 1024.4 0.0
21/03:30am 8.4 5.3 3.8 73 2.0 ESE 9 13 5 7 1024.2 - 0.0
21/03:00am 8.6 5.2 3.8 72 2.1 SE 11 15 6 8 1024.1 1024.3 0.0
21/02:30am 6.0 3.1 2.8 80 1.3 ESE 7 11 4 6 1024.4 - 0.0
21/02:00am 7.9 4.8 3.6 74 1.9 SE 9 13 5 7 1024.6 1024.7 0.0
21/01:30am 8.6 5.9 3.6 71 2.2 ESE 7 11 4 6 1024.8 - 0.0
21/01:00am 9.3 5.8 3.7 68 2.5 ESE 11 13 6 7 1024.9 1025.0 0.0
21/12:30am 9.7 6.2 3.7 66 2.7 ESE 11 13 6 7 1025.0 - 0.0
21/12:00am 10.7 6.9 3.7 62 3.1 ESE 13 17 7 9 1025.0 1025.1 0.0
 
Date/Time
EST
Temp
°C
App
Temp
°C
Dew
Point
Rel
Hum
%
Delta-T
°C
Wind Press
QNH
hPa
Press
MSL
hPa
Rain
since 9 am
mm
Dir
 
Spd
km/h
Gust
km/h
Spd
kts
Gust
kts
20/11:30pm 11.2 7.4 3.7 60 3.4 ESE 13 17 7 9 1025.1 - 0.0
20/11:00pm 11.3 7.5 4.1 61 3.2 ESE 13 17 7 9 1025.0 1025.1 0.0
20/10:30pm 11.3 7.6 4.7 64 3.0 ESE 13 17 7 9 1024.8 - 0.0
20/10:00pm 11.0 7.7 4.7 65 2.9 E 11 15 6 8 1024.7 1024.8 0.0
20/09:30pm 11.1 7.8 4.6 64 3.0 E 11 13 6 7 1024.5 - 0.0
20/09:00pm 11.8 8.5 4.5 61 3.3 E 11 13 6 7 1024.5 1024.6 0.0
20/08:30pm 12.2 8.9 4.4 59 3.6 E 11 15 6 8 1024.2 - 0.0
20/08:00pm 12.3 9.0 4.3 58 3.6 E 11 13 6 7 1023.9 1024.1 0.0
20/07:30pm 13.0 9.7 4.4 56 4.0 E 11 13 6 7 1023.7 - 0.0
20/07:00pm 12.6 9.8 5.3 61 3.4 ESE 9 11 5 6 1023.3 1023.5 0.0
20/06:30pm 14.1 11.5 4.4 52 4.5 ESE 7 9 4 5 1022.9 - 0.0
20/06:00pm 16.1 12.8 2.5 40 6.2 SE 9 13 5 7 1022.6 1022.7 0.0
20/05:30pm 17.4 12.9 2.2 36 6.9 SE 15 20 8 11 1022.4 - 0.0
20/05:00pm 18.1 14.1 2.8 36 7.1 SE 13 20 7 11 1022.1 1022.2 0.0
20/04:30pm 18.3 14.2 2.2 34 7.4 SE 13 20 7 11 1022.0 - 0.0
20/04:00pm 18.4 14.2 1.4 32 7.7 SSE 13 19 7 10 1022.0 1022.1 0.0
20/03:30pm 18.4 14.5 1.4 32 7.7 E 11 17 6 9 1022.1 - 0.0
20/03:00pm 18.4 14.5 1.4 32 7.7 SE 11 22 6 12 1022.2 1022.3 0.0
20/02:30pm 18.4 14.6 1.9 33 7.6 E 11 17 6 9 1022.2 - 0.0
20/02:00pm 18.3 14.0 1.3 32 7.7 ENE 13 20 7 11 1022.6 1022.7 0.0
20/01:30pm 17.7 13.7 0.4 31 7.6 E 11 20 6 11 1022.8 - 0.0
20/01:00pm 18.3 15.0 2.2 34 7.4 ENE 9 15 5 8 1023.2 1023.4 0.0
20/12:30pm 17.5 13.7 1.5 34 7.2 SE 11 17 6 9 1023.7 - 0.0
20/12:00pm 17.4 13.7 2.2 36 6.9 E 11 20 6 11 1024.1 1024.3 0.0
20/11:30am 16.9 12.7 3.9 42 6.1 ENE 15 22 8 12 1024.5 - 0.0
20/11:00am 16.8 12.5 5.1 46 5.6 NE 17 22 9 12 1024.6 1024.7 0.0
20/10:30am 16.0 11.8 5.6 50 5.0 NE 17 24 9 13 1024.8 - 0.0
20/10:00am 15.5 11.4 6.0 53 4.6 ENE 17 24 9 13 1024.8 1024.9 0.0
20/09:30am 14.6 11.3 6.2 57 4.1 E 13 19 7 10 1024.7 - 0.0
20/09:00am 13.5 10.2 6.4 62 3.4 E 13 19 7 10 1024.6 1024.7 0.0
20/08:30am 10.0 9.8 9.1 94 0.5 CALM 0 4 0 2 1024.5 - 0.0
20/08:00am 7.1 6.4 6.8 98 0.1 CALM 0 0 0 0 1024.1 1024.3 0.0
20/07:30am 5.4 4.3 5.3 99 0.0 CALM 0 0 0 0 1023.6 - 0.0
20/07:00am 4.3 1.8 4.0 98 0.1 ENE 6 9 3 5 1023.2 1023.4 0.0
20/06:30am 4.1 2.0 3.8 98 0.1 ENE 4 7 2 4 1022.9 - 0.0
20/06:00am 4.5 3.2 4.1 97 0.2 CALM 0 0 0 0 1022.7 1022.8 0.0
20/05:30am 4.4 3.0 3.8 96 0.3 CALM 0 0 0 0 1022.5 - 0.0
20/05:00am 4.8 3.6 4.4 97 0.2 CALM 0 0 0 0 1022.3 1022.4 0.0
20/04:30am 5.1 3.9 4.7 97 0.2 CALM 0 0 0 0 1022.1 - 0.0
20/04:00am 4.9 3.6 4.3 96 0.3 CALM 0 0 0 0 1021.9 1022.0 0.0
20/03:30am 5.5 4.4 5.1 97 0.2 CALM 0 0 0 0 1021.8 - 0.0
20/03:00am 6.0 4.2 5.6 97 0.2 ENE 4 6 2 3 1021.8 1021.9 0.0
20/02:30am 6.1 5.1 5.5 96 0.3 CALM 0 0 0 0 1021.8 - 0.0
20/02:00am 6.5 5.6 5.9 96 0.3 CALM 0 0 0 0 1022.0 1022.1 0.0
20/01:30am 6.9 6.1 6.3 96 0.3 CALM 0 0 0 0 1022.0 - 0.0
20/01:00am 7.1 6.3 6.5 96 0.3 CALM 0 0 0 0 1021.9 1022.0 0.0
20/12:30am 6.9 5.2 6.0 94 0.4 SE 4 7 2 4 1021.9 - 0.0
20/12:00am 8.0 6.1 6.9 93 0.5 SE 6 9 3 5 1021.9 1022.0 0.0
 
Date/Time
EST
Temp
°C
App
Temp
°C
Dew
Point
Rel
Hum
%
Delta-T
°C
Wind Press
QNH
hPa
Press
MSL
hPa
Rain
since 9 am
mm
Dir
 
Spd
km/h
Gust
km/h
Spd
kts
Gust
kts
19/11:30pm 8.7 6.4 7.3 91 0.7 SSE 9 9 5 5 1021.9 - 0.0
19/11:00pm 9.2 6.9 7.5 89 0.8 SSE 9 9 5 5 1021.8 1021.9 0.0
19/10:30pm 10.2 7.7 8.1 87 1.0 SSE 11 13 6 7 1021.9 - 0.0
19/10:00pm 10.6 8.2 8.5 87 1.0 S 11 13 6 7 1021.9 1022.0 0.0
19/09:30pm 10.9 8.5 8.8 87 1.1 S 11 13 6 7 1022.0 - 0.0
19/09:00pm 11.1 8.6 8.3 83 1.4 SSW 11 13 6 7 1022.0 1022.1 0.0
19/08:30pm 11.5 8.8 8.9 84 1.3 SSW 13 17 7 9 1021.9 - 0.0
19/08:00pm 11.3 9.3 8.5 83 1.4 SW 9 11 5 6 1021.8 1021.9 0.0
19/07:30pm 11.9 10.3 8.6 80 1.7 WSW 7 11 4 6 1021.6 - 0.0
19/07:00pm 12.7 11.1 8.6 76 2.1 WSW 7 9 4 5 1021.3 1021.4 0.0
19/06:30pm 13.5 11.5 8.8 73 2.4 WSW 9 13 5 7 1021.0 - 0.0
19/06:00pm 14.3 11.8 8.3 67 3.0 W 11 15 6 8 1020.7 1020.8 0.0
19/05:30pm 15.5 12.3 8.3 62 3.7 W 15 20 8 11 1020.2 - 0.0
19/05:00pm 16.4 13.1 7.9 57 4.3 W 15 20 8 11 1020.0 1020.1 0.0
19/04:30pm 16.1 12.6 7.1 55 4.5 SSW 15 22 8 12 1019.8 - 0.0
19/04:00pm 16.4 13.0 7.6 56 4.4 SW 15 20 8 11 1019.7 1019.8 0.0
19/03:30pm 16.3 13.8 8.0 58 4.2 SW 11 19 6 10 1019.6 - 0.0
19/03:00pm 16.2 14.1 8.2 59 4.1 SW 9 17 5 9 1019.6 1019.7 0.0
19/02:30pm 16.2 14.0 7.9 58 4.2 W 9 15 5 8 1019.6 - 0.0
19/02:00pm 15.5 13.0 8.0 61 3.8 W 11 17 6 9 1019.4 1019.6 0.0

Other Formats:

Comma delimited format used in spreadsheet applications
http://www.bom.gov.au/fwo/IDN60801/IDN60801.94710.axf

JavaScript Object Notation format (JSON) in row-major order
http://www.bom.gov.au/fwo/IDN60801/IDN60801.94710.json